createdAt,value
2022-08-22T00:01:53.497Z,2.00
2022-08-22T00:02:45.054Z,1.55
2022-08-22T00:03:00.126Z,1.98
2022-08-22T00:03:01.015Z,1.90
2022-08-22T00:04:57.088Z,2.20
2022-08-22T00:07:53.771Z,1.70
2022-08-22T00:10:58.241Z,2.50
2022-08-22T00:14:10.796Z,2.10
2022-08-22T00:17:17.316Z,2.10
2022-08-22T00:20:28.258Z,1.80
2022-08-22T00:23:42.093Z,2.55
2022-08-22T00:26:49.044Z,2.08
2022-08-22T00:29:44.244Z,2.25
2022-08-22T00:32:39.108Z,1.70
2022-08-22T00:35:34.006Z,1.92
2022-08-22T00:38:27.980Z,2.20
2022-08-22T00:41:19.591Z,2.10
2022-08-22T00:44:22.965Z,1.85
2022-08-22T00:47:42.540Z,2.08
2022-08-22T00:51:10.408Z,2.13
2022-08-22T00:54:13.352Z,2.55
2022-08-22T00:57:17.263Z,2.63
2022-08-22T01:00:12.475Z,2.22
2022-08-22T01:03:05.114Z,2.15
2022-08-22T01:06:11.786Z,2.83
2022-08-22T01:09:27.662Z,2.20
2022-08-22T01:12:50.787Z,2.38
2022-08-22T01:15:38.197Z,2.70
2022-08-22T01:18:50.292Z,2.08
2022-08-22T01:21:54.886Z,2.35
2022-08-22T01:25:08.430Z,2.15
2022-08-22T01:28:32.551Z,2.40
2022-08-22T01:31:55.577Z,2.42
2022-08-22T01:34:50.311Z,2.65
2022-08-22T01:38:00.511Z,2.35
2022-08-22T01:40:58.279Z,2.50
2022-08-22T01:44:07.782Z,2.05
2022-08-22T01:47:13.305Z,2.55
2022-08-22T01:50:10.937Z,2.20
2022-08-22T01:53:14.527Z,2.45
2022-08-22T01:56:10.483Z,2.40
2022-08-22T01:59:12.176Z,2.45
2022-08-22T02:02:10.570Z,2.20
2022-08-22T02:05:11.210Z,2.20
2022-08-22T02:08:05.538Z,2.22
2022-08-22T02:11:08.342Z,2.50
2022-08-22T02:14:14.093Z,2.85
2022-08-22T02:17:35.781Z,2.47
2022-08-22T02:20:26.162Z,2.58
2022-08-22T02:23:29.600Z,2.35
2022-08-22T02:26:23.266Z,2.33
2022-08-22T02:29:28.553Z,2.65
2022-08-22T02:32:58.335Z,2.63
2022-08-22T02:36:00.690Z,2.63
2022-08-22T02:39:10.419Z,2.55
2022-08-22T02:42:07.241Z,2.53
2022-08-22T02:45:23.857Z,2.25
2022-08-22T02:48:33.611Z,2.60
2022-08-22T02:51:22.072Z,3.40
2022-08-22T02:54:18.509Z,3.10
2022-08-22T02:57:08.185Z,2.60
2022-08-22T03:00:29.717Z,3.03
2022-08-22T03:03:28.923Z,2.97
2022-08-22T03:06:17.377Z,3.20
2022-08-22T03:09:29.704Z,3.00
2022-08-22T03:12:44.908Z,2.90
2022-08-22T03:15:49.437Z,2.80
2022-08-22T03:18:56.349Z,2.97
2022-08-22T03:21:45.359Z,2.60
2022-08-22T03:24:50.073Z,3.37
2022-08-22T03:27:50.379Z,3.67
2022-08-22T03:30:55.997Z,2.70
2022-08-22T03:33:42.239Z,2.88
2022-08-22T03:36:31.405Z,3.05
2022-08-22T03:39:22.470Z,3.00
2022-08-22T03:42:38.749Z,2.80
2022-08-22T03:45:57.886Z,3.55
2022-08-22T03:48:50.171Z,3.20
2022-08-22T03:51:38.731Z,3.10
2022-08-22T03:54:46.481Z,3.05
2022-08-22T03:57:58.247Z,2.90
2022-08-22T04:00:56.698Z,3.47
2022-08-22T04:04:19.109Z,3.00
2022-08-22T04:07:41.907Z,3.25
2022-08-22T04:11:12.041Z,2.90
2022-08-22T04:14:24.264Z,3.65
2022-08-22T04:17:31.301Z,3.22
2022-08-22T04:21:02.362Z,3.05
2022-08-22T04:23:50.956Z,3.33
2022-08-22T04:26:46.302Z,3.08
2022-08-22T04:29:44.230Z,3.30
2022-08-22T04:32:32.127Z,3.53
2022-08-22T04:35:35.872Z,3.60
2022-08-22T04:38:33.183Z,3.58
2022-08-22T04:41:41.339Z,3.60
2022-08-22T04:44:42.705Z,3.97
2022-08-22T04:47:32.278Z,3.30
2022-08-22T04:50:24.147Z,3.10
2022-08-22T04:53:25.168Z,3.50
2022-08-22T04:56:24.999Z,3.40
2022-08-22T04:59:16.495Z,3.05
2022-08-22T05:02:07.073Z,3.10
2022-08-22T05:05:01.685Z,3.17
2022-08-22T05:07:55.874Z,3.70
2022-08-22T05:10:46.529Z,3.03
2022-08-22T05:13:46.721Z,3.63
2022-08-22T05:16:41.981Z,3.35
2022-08-22T05:19:34.674Z,3.45
2022-08-22T05:22:25.021Z,3.55
2022-08-22T05:25:18.651Z,3.38
2022-08-22T05:28:22.774Z,3.38
2022-08-22T05:31:24.022Z,3.35
2022-08-22T05:34:18.102Z,3.33
2022-08-22T05:37:19.816Z,3.45
2022-08-22T05:40:07.287Z,3.58
2022-08-22T05:42:54.988Z,3.20
2022-08-22T05:45:46.162Z,3.40
2022-08-22T05:48:42.489Z,3.10
2022-08-22T05:51:43.240Z,3.30
2022-08-22T05:54:34.735Z,3.47
2022-08-22T05:57:28.925Z,3.22
2022-08-22T06:00:22.107Z,3.33
2022-08-22T06:03:08.139Z,3.63
2022-08-22T06:05:59.571Z,3.70
2022-08-22T06:09:05.967Z,3.22
2022-08-22T06:12:04.621Z,3.20
2022-08-22T06:15:20.982Z,3.40
2022-08-22T06:18:12.835Z,3.20
2022-08-22T06:21:00.702Z,3.30
2022-08-22T06:23:56.718Z,3.13
2022-08-22T06:26:48.802Z,3.00
2022-08-22T06:29:49.309Z,3.05
2022-08-22T06:33:00.045Z,3.10
2022-08-22T06:36:26.114Z,3.50
2022-08-22T06:39:32.863Z,3.13
2022-08-22T06:42:25.963Z,3.00
2022-08-22T06:45:32.054Z,3.33
2022-08-22T06:48:21.049Z,3.00
2022-08-22T06:51:08.825Z,3.40
2022-08-22T06:53:59.922Z,3.13
2022-08-22T06:56:48.587Z,3.00
2022-08-22T06:59:37.215Z,3.10
2022-08-22T07:02:26.089Z,3.33
2022-08-22T07:05:28.449Z,3.22
2022-08-22T07:08:19.022Z,3.17
2022-08-22T07:11:29.610Z,3.00
2022-08-22T07:14:17.867Z,3.33
2022-08-22T07:17:09.016Z,3.28
2022-08-22T07:19:58.012Z,3.10
2022-08-22T07:22:54.277Z,3.30
2022-08-22T07:25:55.412Z,3.58
2022-08-22T07:28:51.626Z,3.33
2022-08-22T07:32:00.547Z,3.47
2022-08-22T07:35:06.525Z,3.22
2022-08-22T07:38:01.596Z,3.45
2022-08-22T07:40:57.587Z,2.80
2022-08-22T07:44:00.791Z,3.38
2022-08-22T07:47:06.427Z,3.47
2022-08-22T07:49:59.989Z,3.30
2022-08-22T07:52:46.954Z,3.22
2022-08-22T07:55:33.238Z,3.60
2022-08-22T07:58:31.580Z,3.50
2022-08-22T08:01:21.166Z,3.28
2022-08-22T08:04:14.752Z,3.38
2022-08-22T08:07:05.421Z,3.10
2022-08-22T08:10:00.288Z,4.22
2022-08-22T08:13:02.767Z,3.80
2022-08-22T08:15:50.953Z,3.83
2022-08-22T08:18:39.177Z,3.55
2022-08-22T08:21:28.134Z,3.40
2022-08-22T08:24:19.669Z,3.35
2022-08-22T08:27:31.292Z,3.53
2022-08-22T08:30:21.301Z,3.17
2022-08-22T08:33:25.630Z,3.47
2022-08-22T08:36:36.724Z,3.33
2022-08-22T08:39:35.162Z,2.60
2022-08-22T08:42:21.336Z,2.72
2022-08-22T08:45:29.012Z,2.80
2022-08-22T08:48:47.505Z,2.80
2022-08-22T08:51:34.045Z,3.13
2022-08-22T08:54:22.869Z,3.40
2022-08-22T08:57:46.340Z,3.10
2022-08-22T09:00:48.977Z,2.90
2022-08-22T09:04:16.970Z,3.30
2022-08-22T09:07:27.571Z,3.67
2022-08-22T09:10:19.936Z,3.22
2022-08-22T09:13:18.288Z,3.72
2022-08-22T09:16:37.872Z,3.37
2022-08-22T09:19:52.747Z,3.63
2022-08-22T09:23:11.112Z,3.40
2022-08-22T09:26:16.588Z,3.60
2022-08-22T09:29:29.132Z,3.00
2022-08-22T09:32:28.726Z,3.30
2022-08-22T09:35:33.335Z,2.97
2022-08-22T09:38:28.603Z,3.58
2022-08-22T09:41:37.497Z,3.20
2022-08-22T09:44:49.975Z,3.17
2022-08-22T09:48:07.591Z,2.90
2022-08-22T09:51:01.782Z,3.10
2022-08-22T09:54:03.097Z,2.95
2022-08-22T09:57:24.328Z,2.97
2022-08-22T10:00:31.700Z,2.83
2022-08-22T10:03:27.215Z,3.20
2022-08-22T10:06:30.185Z,2.78
2022-08-22T10:09:36.162Z,3.50
2022-08-22T10:12:42.681Z,3.00
2022-08-22T10:16:00.289Z,3.35
2022-08-22T10:19:09.884Z,3.03
2022-08-22T10:22:14.519Z,3.20
2022-08-22T10:25:28.467Z,2.65
2022-08-22T10:28:20.570Z,2.78
2022-08-22T10:31:29.113Z,2.20
2022-08-22T10:34:35.606Z,2.47
2022-08-22T10:37:46.053Z,2.63
2022-08-22T10:40:57.180Z,2.50
2022-08-22T10:44:15.168Z,2.80
2022-08-22T10:47:08.609Z,2.92
2022-08-22T10:50:01.527Z,2.60
2022-08-22T10:53:18.767Z,2.55
2022-08-22T10:56:23.343Z,2.67
2022-08-22T10:59:34.575Z,2.53
2022-08-22T11:02:23.286Z,2.97
2022-08-22T11:05:51.433Z,2.60
2022-08-22T11:09:01.139Z,2.72
2022-08-22T11:12:11.091Z,3.08
2022-08-22T11:15:34.380Z,3.30
2022-08-22T11:19:01.989Z,3.38
2022-08-22T11:22:10.394Z,2.47
2022-08-22T11:25:04.519Z,2.25
2022-08-22T11:27:59.343Z,2.60
2022-08-22T11:31:03.979Z,3.00
2022-08-22T11:34:04.022Z,3.30
2022-08-22T11:36:55.601Z,3.35
2022-08-22T11:39:48.202Z,2.75
2022-08-22T11:42:47.391Z,3.10
2022-08-22T11:48:59.768Z,2.97
2022-08-22T11:51:57.332Z,3.35
2022-08-22T11:54:49.582Z,2.78
2022-08-22T11:57:50.025Z,3.03
2022-08-22T12:00:56.456Z,2.90
2022-08-22T12:03:46.025Z,2.80
2022-08-22T12:07:04.799Z,2.88
2022-08-22T12:10:24.166Z,3.20
2022-08-22T12:13:35.828Z,3.00
2022-08-22T12:16:33.514Z,2.83
2022-08-22T12:19:33.382Z,2.67
2022-08-22T12:23:07.594Z,2.83
2022-08-22T12:26:24.856Z,2.70
2022-08-22T12:29:18.532Z,3.13
2022-08-22T12:32:45.847Z,2.60
2022-08-22T12:35:54.477Z,3.60
2022-08-22T12:38:45.943Z,2.75
2022-08-22T12:42:09.680Z,2.50
2022-08-22T12:45:17.167Z,2.97
2022-08-22T12:48:36.801Z,3.15
2022-08-22T12:51:32.464Z,2.72
2022-08-22T12:54:47.943Z,2.65
2022-08-22T12:57:54.355Z,2.80
2022-08-22T13:00:45.088Z,3.20
2022-08-22T13:03:35.346Z,2.88
2022-08-22T13:06:36.403Z,2.58
2022-08-22T13:09:30.853Z,2.75
2022-08-22T13:12:33.382Z,2.83
2022-08-22T13:15:31.308Z,3.00
2022-08-22T13:18:29.860Z,3.22
2022-08-22T13:21:18.848Z,2.90
2022-08-22T13:24:16.949Z,3.17
2022-08-22T13:27:15.699Z,2.80
2022-08-22T13:30:12.505Z,2.70
2022-08-22T13:33:34.915Z,2.90
2022-08-22T13:36:24.100Z,2.65
2022-08-22T13:39:15.495Z,3.17
2022-08-22T13:42:14.592Z,2.75
2022-08-22T13:45:24.057Z,2.63
2022-08-22T13:48:15.647Z,2.88
2022-08-22T13:51:14.464Z,3.17
2022-08-22T13:54:10.823Z,2.60
2022-08-22T13:57:11.046Z,3.08
2022-08-22T14:00:32.479Z,3.22
2022-08-22T14:03:26.161Z,3.20
2022-08-22T14:06:41.177Z,2.92
2022-08-22T14:09:54.238Z,2.88
2022-08-22T14:12:50.780Z,2.95
2022-08-22T14:15:45.274Z,3.40
2022-08-22T14:18:47.316Z,3.28
2022-08-22T14:22:00.531Z,2.72
2022-08-22T14:24:59.547Z,3.13
2022-08-22T14:27:59.442Z,2.38
2022-08-22T14:31:00.622Z,3.40
2022-08-22T14:34:10.321Z,3.30
2022-08-22T14:39:58.422Z,3.13
2022-08-22T14:42:55.738Z,3.08
2022-08-22T14:45:53.357Z,2.90
2022-08-22T14:49:06.338Z,2.70
2022-08-22T14:52:04.289Z,3.17
2022-08-22T14:55:08.781Z,2.70
2022-08-22T14:57:56.263Z,3.08
2022-08-22T15:00:48.072Z,2.90
2022-08-22T15:03:38.476Z,3.30
2022-08-22T15:06:38.080Z,2.92
2022-08-22T15:09:53.214Z,2.90
2022-08-22T15:12:46.630Z,3.00
2022-08-22T15:15:54.358Z,2.85
2022-08-22T15:21:41.722Z,2.80
2022-08-22T15:24:28.406Z,3.13
2022-08-22T15:27:19.394Z,3.10
2022-08-22T15:30:16.549Z,2.83
2022-08-22T15:33:10.889Z,2.88
2022-08-22T15:36:09.048Z,2.75
2022-08-22T15:39:56.960Z,3.10
2022-08-22T15:42:51.095Z,3.10
2022-08-22T15:45:39.565Z,2.58
2022-08-22T15:48:32.780Z,3.00
2022-08-22T15:51:39.221Z,3.30
2022-08-22T15:54:53.533Z,3.10
2022-08-22T15:57:42.183Z,2.97
2022-08-22T16:01:18.726Z,2.93
2022-08-22T16:04:14.416Z,3.33
2022-08-22T16:07:01.780Z,3.00
2022-08-22T16:09:54.813Z,4.55
2022-08-22T16:13:03.295Z,3.83
2022-08-22T16:15:54.062Z,3.00
2022-08-22T16:18:40.385Z,3.03
2022-08-22T16:21:26.277Z,3.10
2022-08-22T16:24:12.865Z,3.00
2022-08-22T16:26:58.796Z,3.10
2022-08-22T16:29:46.478Z,3.08
2022-08-22T16:32:33.427Z,3.17
2022-08-22T16:35:57.068Z,3.08
2022-08-22T16:38:48.805Z,3.28
2022-08-22T16:41:43.805Z,3.30
2022-08-22T16:44:29.499Z,3.00
2022-08-22T16:47:41.794Z,3.33
2022-08-22T16:50:35.537Z,2.97
2022-08-22T16:53:21.586Z,2.70
2022-08-22T16:56:13.650Z,3.50
2022-08-22T16:59:22.459Z,3.08
2022-08-22T17:02:28.002Z,3.38
2022-08-22T17:05:40.769Z,3.25
2022-08-22T17:08:29.382Z,3.47
2022-08-22T17:11:40.638Z,2.92
2022-08-22T17:15:05.003Z,3.53
2022-08-22T17:18:28.514Z,3.20
2022-08-22T17:21:26.414Z,3.38
2022-08-22T17:24:36.228Z,2.65
2022-08-22T17:27:37.130Z,2.83
2022-08-22T17:30:36.889Z,3.05
2022-08-22T17:36:44.849Z,2.95
2022-08-22T17:39:33.944Z,3.00
2022-08-22T17:42:46.899Z,3.37
2022-08-22T17:45:59.423Z,2.50
2022-08-22T17:49:02.532Z,2.65
2022-08-22T17:52:20.663Z,2.90
2022-08-22T17:55:45.359Z,2.97
2022-08-22T17:58:50.382Z,2.90
2022-08-22T18:01:51.552Z,2.90
2022-08-22T18:04:58.187Z,2.78
2022-08-22T18:08:04.089Z,3.00
2022-08-22T18:10:57.114Z,2.97
2022-08-22T18:13:49.554Z,2.72
2022-08-22T18:16:47.070Z,2.67
2022-08-22T18:20:05.411Z,2.80
2022-08-22T18:22:56.833Z,2.67
2022-08-22T18:25:54.617Z,2.60
2022-08-22T18:28:54.832Z,2.75
2022-08-22T18:31:49.943Z,2.72
2022-08-22T18:34:49.600Z,2.92
2022-08-22T18:37:41.465Z,3.53
2022-08-22T18:40:36.666Z,3.13
2022-08-22T18:43:39.766Z,3.00
2022-08-22T18:46:33.726Z,2.95
2022-08-22T18:49:22.310Z,3.75
2022-08-22T18:52:28.807Z,2.88
2022-08-22T18:55:35.996Z,3.58
2022-08-22T18:58:58.899Z,3.35
2022-08-22T19:01:57.902Z,3.25
2022-08-22T19:05:01.942Z,3.85
2022-08-22T19:07:59.978Z,3.40
2022-08-22T19:11:09.989Z,3.63
2022-08-22T19:13:55.608Z,2.92
2022-08-22T19:17:00.024Z,3.35
2022-08-22T19:20:29.549Z,3.10
2022-08-22T19:23:37.591Z,3.53
2022-08-22T19:26:32.917Z,3.72
2022-08-22T19:29:21.359Z,3.85
2022-08-22T19:32:12.885Z,3.10
2022-08-22T19:35:25.658Z,3.35
2022-08-22T19:38:50.946Z,3.53
2022-08-22T19:41:57.061Z,3.50
2022-08-22T19:44:46.395Z,3.13
2022-08-22T19:47:40.174Z,3.67
2022-08-22T19:50:33.180Z,3.85
2022-08-22T19:53:32.595Z,3.65
2022-08-22T19:56:50.556Z,3.50
2022-08-22T20:00:00.130Z,3.20
2022-08-22T20:03:12.100Z,3.53
2022-08-22T20:06:42.918Z,3.58
2022-08-22T20:09:48.192Z,3.47
2022-08-22T20:13:11.982Z,3.75
2022-08-22T20:16:18.944Z,3.53
2022-08-22T20:19:08.953Z,3.97
2022-08-22T20:22:01.109Z,3.25
2022-08-22T20:24:53.549Z,3.30
2022-08-22T20:27:44.775Z,3.50
2022-08-22T20:30:38.696Z,3.22
2022-08-22T20:33:28.862Z,3.53
2022-08-22T20:36:28.301Z,4.45
2022-08-22T20:42:13.396Z,3.53
2022-08-22T20:45:00.951Z,3.80
2022-08-22T20:47:51.078Z,3.50
2022-08-22T20:50:37.134Z,3.70
2022-08-22T20:53:22.953Z,3.92
2022-08-22T20:56:09.630Z,3.22
2022-08-22T20:59:00.500Z,3.38
2022-08-22T21:01:48.941Z,3.25
2022-08-22T21:04:49.727Z,3.50
2022-08-22T21:07:42.112Z,3.30
2022-08-22T21:10:49.169Z,3.45
2022-08-22T21:13:37.657Z,3.75
2022-08-22T21:16:33.036Z,3.65
2022-08-22T21:19:29.895Z,3.75
2022-08-22T21:22:28.996Z,3.33
2022-08-22T21:25:14.927Z,3.80
2022-08-22T21:28:01.185Z,3.75
2022-08-22T21:30:47.278Z,3.55
2022-08-22T21:33:32.974Z,3.33
2022-08-22T21:36:22.202Z,3.13
2022-08-22T21:39:23.984Z,3.28
2022-08-22T21:42:34.188Z,3.53
2022-08-22T21:45:38.281Z,3.17
2022-08-22T21:48:35.271Z,3.60
2022-08-22T21:51:32.168Z,3.70
2022-08-22T21:54:29.871Z,3.90
2022-08-22T21:57:18.564Z,3.33
2022-08-22T22:00:13.065Z,3.40
2022-08-22T22:03:03.332Z,3.35
2022-08-22T22:05:56.413Z,4.40
2022-08-22T22:08:42.515Z,4.63
2022-08-22T22:11:28.522Z,3.20
2022-08-22T22:14:14.114Z,4.10
2022-08-22T22:17:00.089Z,4.18
2022-08-22T22:19:46.528Z,4.05
2022-08-22T22:22:32.619Z,3.28
2022-08-22T22:25:40.127Z,3.95
2022-08-22T22:28:34.015Z,3.72
2022-08-22T22:31:19.786Z,3.65
2022-08-22T22:34:05.350Z,3.72
2022-08-22T22:36:51.447Z,3.80
2022-08-22T22:39:37.180Z,3.05
2022-08-22T22:42:22.988Z,3.53
2022-08-22T22:45:10.697Z,3.28
2022-08-22T22:47:56.853Z,3.60
2022-08-22T22:50:44.228Z,3.22
2022-08-22T22:53:38.313Z,3.75
2022-08-22T22:56:25.249Z,3.92
2022-08-22T22:59:13.399Z,3.70
2022-08-22T23:02:01.557Z,3.50
2022-08-22T23:04:52.785Z,4.07
2022-08-22T23:07:39.109Z,3.63
2022-08-22T23:10:25.510Z,3.50
2022-08-22T23:13:11.048Z,3.30
2022-08-22T23:15:56.627Z,3.28
2022-08-22T23:18:43.408Z,3.80
2022-08-22T23:21:30.374Z,3.25
2022-08-22T23:24:17.982Z,3.55
2022-08-22T23:27:05.600Z,4.03
2022-08-22T23:29:51.482Z,3.97
2022-08-22T23:32:37.967Z,3.50
2022-08-22T23:35:23.728Z,3.95
2022-08-22T23:38:09.818Z,3.72
2022-08-22T23:40:55.568Z,3.90
2022-08-22T23:43:44.788Z,3.83
2022-08-22T23:46:31.226Z,3.40
2022-08-22T23:49:18.036Z,3.83
2022-08-22T23:52:05.260Z,3.83
2022-08-22T23:54:55.451Z,4.03
2022-08-22T23:57:41.470Z,4.20
